createdAt,value
2022-09-05T00:04:03.486Z,2.40
2022-09-05T00:09:41.689Z,2.60
2022-09-05T00:15:17.219Z,2.23
2022-09-05T00:24:19.988Z,2.60
2022-09-05T00:26:09.809Z,2.70
2022-09-05T00:31:53.956Z,2.47
2022-09-05T00:36:51.611Z,2.30
2022-09-05T00:41:58.847Z,2.60
2022-09-05T00:47:06.663Z,2.83
2022-09-05T00:52:17.670Z,2.23
2022-09-05T00:57:42.093Z,2.57
2022-09-05T01:03:02.389Z,2.80
2022-09-05T01:08:22.481Z,2.40
2022-09-05T01:13:35.925Z,2.30
2022-09-05T01:18:49.160Z,2.33
2022-09-05T01:24:18.475Z,2.50
2022-09-05T01:29:41.864Z,2.23
2022-09-05T01:34:56.698Z,3.13
2022-09-05T01:40:15.675Z,2.50
2022-09-05T01:45:29.597Z,2.27
2022-09-05T01:50:48.363Z,2.83
2022-09-05T01:56:09.490Z,2.83
2022-09-05T02:01:25.260Z,2.47
2022-09-05T02:06:44.185Z,2.57
2022-09-05T02:11:50.414Z,2.90
2022-09-05T02:16:57.797Z,2.50
2022-09-05T02:22:06.371Z,2.83
2022-09-05T02:28:05.175Z,2.83
2022-09-05T02:32:54.542Z,2.43
2022-09-05T02:39:19.955Z,2.67
2022-09-05T02:45:06.537Z,2.60
2022-09-05T02:49:04.827Z,2.37
2022-09-05T02:57:42.487Z,2.60
2022-09-05T03:00:03.456Z,2.97
2022-09-05T03:05:14.206Z,3.00
2022-09-05T03:10:47.149Z,3.17
2022-09-05T03:16:24.108Z,3.27
2022-09-05T03:21:51.815Z,3.73
2022-09-05T03:27:16.229Z,2.63
2022-09-05T03:32:59.932Z,2.83
2022-09-05T03:38:47.265Z,2.87
2022-09-05T03:44:17.384Z,3.27
2022-09-05T03:50:59.279Z,3.27
2022-09-05T03:57:13.709Z,3.57
2022-09-05T04:01:25.596Z,3.23
2022-09-05T04:08:14.241Z,3.40
2022-09-05T04:12:09.170Z,3.00
2022-09-05T04:17:22.213Z,3.87
2022-09-05T04:22:34.834Z,3.20
2022-09-05T04:27:49.261Z,3.27
2022-09-05T04:32:57.342Z,3.10
2022-09-05T04:38:10.868Z,3.30
2022-09-05T04:43:24.220Z,3.83
2022-09-05T04:48:32.733Z,3.77
2022-09-05T04:53:53.845Z,3.50
2022-09-05T05:03:29.933Z,3.20
2022-09-05T05:06:09.094Z,3.47
2022-09-05T05:09:56.277Z,2.97
2022-09-05T05:18:13.759Z,3.40
2022-09-05T05:20:49.531Z,3.23
2022-09-05T05:25:55.103Z,2.80
2022-09-05T05:31:10.332Z,2.90
2022-09-05T05:36:20.611Z,2.40
2022-09-05T05:41:27.380Z,2.90
2022-09-05T05:46:38.035Z,3.00
2022-09-05T05:52:02.071Z,2.77
2022-09-05T05:57:28.456Z,2.80
2022-09-05T06:03:26.878Z,3.27
2022-09-05T06:13:00.897Z,3.17
2022-09-05T06:14:57.126Z,2.60
2022-09-05T06:22:08.366Z,2.57
2022-09-05T06:27:08.978Z,2.80
2022-09-05T06:32:30.781Z,2.90
2022-09-05T06:37:45.908Z,3.03
2022-09-05T06:43:04.785Z,2.83
2022-09-05T06:48:14.573Z,2.60
2022-09-05T06:54:03.624Z,2.90
2022-09-05T06:59:27.682Z,2.57
2022-09-05T07:05:18.449Z,2.67
2022-09-05T07:10:16.614Z,2.90
2022-09-05T07:15:36.561Z,2.33
2022-09-05T07:21:17.370Z,2.87
2022-09-05T07:26:11.118Z,2.50
2022-09-05T07:31:38.387Z,2.70
2022-09-05T07:36:47.202Z,2.50
2022-09-05T07:41:53.237Z,2.33
2022-09-05T07:47:02.058Z,2.43
2022-09-05T07:57:10.320Z,2.33
2022-09-05T07:57:51.735Z,2.47
2022-09-05T08:02:55.045Z,2.47
2022-09-05T08:08:01.688Z,2.37
2022-09-05T08:13:24.048Z,2.20
2022-09-05T08:18:37.533Z,2.77
2022-09-05T08:23:55.006Z,2.37
2022-09-05T08:29:05.133Z,1.93
2022-09-05T08:34:12.238Z,2.47
2022-09-05T08:39:18.573Z,2.47
2022-09-05T08:46:36.246Z,2.63
2022-09-05T08:50:26.804Z,2.83
2022-09-05T08:55:43.137Z,2.47
2022-09-05T09:00:55.723Z,2.43
2022-09-05T09:06:32.318Z,2.40
2022-09-05T09:11:41.240Z,2.20
2022-09-05T09:16:58.253Z,2.30
2022-09-05T09:22:15.567Z,2.30
2022-09-05T09:28:07.356Z,2.38
2022-09-05T09:32:59.476Z,2.42
2022-09-05T09:38:23.082Z,2.13
2022-09-05T09:43:30.364Z,2.38
2022-09-05T09:49:09.494Z,2.75
2022-09-05T09:54:52.966Z,2.53
2022-09-05T10:00:14.892Z,2.90
2022-09-05T10:10:43.852Z,2.35
2022-09-05T10:11:55.005Z,2.60
2022-09-05T10:17:29.321Z,2.50
2022-09-05T10:22:45.882Z,2.40
2022-09-05T10:28:04.419Z,2.35
2022-09-05T10:35:23.188Z,2.17
2022-09-05T10:39:13.625Z,2.50
2022-09-05T10:44:22.375Z,2.40
2022-09-05T10:49:30.691Z,2.67
2022-09-05T10:54:45.020Z,2.50
2022-09-05T11:02:24.274Z,2.13
2022-09-05T11:05:32.477Z,2.10
2022-09-05T11:10:37.719Z,2.30
2022-09-05T11:16:03.900Z,2.30
2022-09-05T11:21:18.040Z,2.50
2022-09-05T11:26:32.144Z,2.70
2022-09-05T11:34:40.167Z,2.72
2022-09-05T11:40:07.230Z,2.80
2022-09-05T11:42:59.260Z,2.47
2022-09-05T11:48:21.995Z,2.28
2022-09-05T11:53:54.588Z,2.55
2022-09-05T11:59:32.716Z,2.80
2022-09-05T12:05:47.775Z,2.53
2022-09-05T12:10:46.361Z,2.90
2022-09-05T12:16:07.248Z,2.85
2022-09-05T12:21:26.473Z,2.45
2022-09-05T12:27:39.426Z,2.58
2022-09-05T12:40:56.523Z,2.22
2022-09-05T12:41:42.042Z,2.45
2022-09-05T12:44:20.916Z,2.28
2022-09-05T12:48:26.209Z,2.53
2022-09-05T12:53:46.672Z,2.40
2022-09-05T13:02:58.403Z,2.70
2022-09-05T13:04:22.736Z,2.50
2022-09-05T13:10:14.265Z,1.83
2022-09-05T13:15:20.031Z,2.10
2022-09-05T13:20:28.263Z,2.50
2022-09-05T13:25:31.437Z,2.08
2022-09-05T13:31:40.654Z,2.45
2022-09-05T13:38:05.046Z,2.40
2022-09-05T13:41:42.674Z,2.53
2022-09-05T13:46:55.927Z,2.55
2022-09-05T13:52:25.005Z,2.47
2022-09-05T13:57:36.156Z,2.50
2022-09-05T14:08:36.057Z,2.30
2022-09-05T14:13:57.438Z,2.25
2022-09-05T14:19:01.026Z,2.42
2022-09-05T14:24:12.499Z,2.13
2022-09-05T14:29:19.306Z,2.50
2022-09-05T14:37:54.127Z,2.40
2022-09-05T14:40:45.584Z,2.30
2022-09-05T14:46:06.356Z,2.80
2022-09-05T14:51:25.752Z,2.80
2022-09-05T14:57:23.461Z,2.75
2022-09-05T15:02:42.867Z,2.63
2022-09-05T15:07:30.904Z,2.60
2022-09-05T15:12:45.475Z,2.67
2022-09-05T15:17:54.237Z,2.78
2022-09-05T15:22:58.230Z,2.50
2022-09-05T15:28:00.256Z,2.45
2022-09-05T15:33:25.438Z,4.25
2022-09-05T15:38:37.117Z,2.60
2022-09-05T15:44:02.200Z,2.60
2022-09-05T15:49:09.074Z,2.47
2022-09-05T15:54:38.137Z,2.50
2022-09-05T15:59:44.170Z,2.80
2022-09-05T16:10:29.161Z,2.80
2022-09-05T16:10:49.990Z,2.70
2022-09-05T16:17:31.296Z,2.63
2022-09-05T16:23:34.526Z,3.08
2022-09-05T16:26:40.366Z,2.92
2022-09-05T16:31:48.314Z,2.83
2022-09-05T16:37:07.987Z,2.85
2022-09-05T16:42:19.787Z,3.17
2022-09-05T16:47:31.879Z,2.80
2022-09-05T16:52:56.147Z,2.75
2022-09-05T16:58:14.640Z,3.28
2022-09-05T17:03:28.302Z,3.10
2022-09-05T17:08:31.358Z,2.92
2022-09-05T17:13:41.329Z,3.20
2022-09-05T17:18:46.082Z,3.00
2022-09-05T17:29:19.470Z,3.00
2022-09-05T17:31:23.770Z,2.88
2022-09-05T17:35:16.616Z,3.22
2022-09-05T17:40:44.086Z,2.90
2022-09-05T17:45:55.284Z,3.17
2022-09-05T17:50:57.149Z,2.70
2022-09-05T17:56:27.084Z,2.60
2022-09-05T18:01:30.941Z,3.13
2022-09-05T18:06:38.850Z,2.80
2022-09-05T18:12:02.454Z,2.80
2022-09-05T18:17:36.332Z,2.77
2022-09-05T18:22:45.316Z,2.70
2022-09-05T18:33:55.029Z,2.60
2022-09-05T18:38:50.832Z,2.47
2022-09-05T18:44:13.948Z,2.87
2022-09-05T18:50:23.987Z,2.80
2022-09-05T18:54:50.408Z,2.30
2022-09-05T19:00:13.948Z,2.60
2022-09-05T19:05:28.443Z,2.67
2022-09-05T19:10:34.603Z,2.67
2022-09-05T19:15:48.163Z,2.43
2022-09-05T19:21:13.183Z,2.70
2022-09-05T19:26:20.741Z,2.67
2022-09-05T19:36:50.765Z,2.97
2022-09-05T19:37:26.298Z,2.93
2022-09-05T19:47:30.333Z,3.00
2022-09-05T19:53:07.669Z,2.60
2022-09-05T19:58:19.363Z,2.60
2022-09-05T20:03:22.103Z,2.40
2022-09-05T20:08:32.229Z,2.57
2022-09-05T20:13:34.086Z,2.10
2022-09-05T20:18:37.933Z,2.37
2022-09-05T20:23:45.662Z,2.70
2022-09-05T20:28:52.735Z,2.37
2022-09-05T20:33:59.385Z,2.10
2022-09-05T20:43:35.004Z,2.37
2022-09-05T20:44:41.117Z,2.70
2022-09-05T20:54:10.094Z,2.30
2022-09-05T20:55:38.866Z,2.50
2022-09-05T21:00:41.568Z,2.13
2022-09-05T21:06:11.405Z,2.87
2022-09-05T21:11:15.580Z,2.43
2022-09-05T21:16:20.137Z,2.50
2022-09-05T21:21:29.571Z,1.83
2022-09-05T21:26:33.817Z,2.07
2022-09-05T21:31:42.639Z,2.03
2022-09-05T21:36:45.837Z,2.00
2022-09-05T21:42:03.491Z,1.97
2022-09-05T21:47:47.726Z,2.23
2022-09-05T21:52:58.944Z,2.20
2022-09-05T21:59:29.833Z,2.10
2022-09-05T22:03:25.719Z,2.10
2022-09-05T22:08:27.791Z,1.93
2022-09-05T22:13:31.610Z,1.80
2022-09-05T22:18:36.100Z,2.10
2022-09-05T22:23:40.366Z,1.83
2022-09-05T22:28:44.095Z,1.93
2022-09-05T22:33:50.625Z,2.00
2022-09-05T22:38:53.887Z,2.17
2022-09-05T22:43:57.526Z,2.07
2022-09-05T22:48:59.548Z,1.97
2022-09-05T22:54:01.271Z,2.00
2022-09-05T22:59:05.212Z,1.87
2022-09-05T23:04:06.945Z,1.80
2022-09-05T23:09:09.018Z,1.90
2022-09-05T23:14:12.829Z,1.77
2022-09-05T23:19:14.793Z,1.70
2022-09-05T23:24:16.760Z,1.70
2022-09-05T23:29:19.856Z,1.60
2022-09-05T23:34:21.504Z,1.80
2022-09-05T23:39:23.374Z,2.17
2022-09-05T23:44:26.934Z,1.43
2022-09-05T23:49:28.724Z,1.60
2022-09-05T23:54:30.577Z,1.33
2022-09-05T23:59:34.040Z,1.37
